sensor_id;sensor_type;location;lat;lon;timestamp;pressure;altitude;pressure_sealevel;temperature;humidity
31681;BME280;18281;51.364;9.566;2024-02-26T00:00:25;98529.22;;;-1.69;100.00
31681;BME280;18281;51.364;9.566;2024-02-26T00:02:50;98526.06;;;-1.79;100.00
31681;BME280;18281;51.364;9.566;2024-02-26T00:05:16;98517.94;;;-1.95;100.00
31681;BME280;18281;51.364;9.566;2024-02-26T00:07:41;98520.91;;;-1.79;100.00
31681;BME280;18281;51.364;9.566;2024-02-26T00:10:08;98520.19;;;-1.83;100.00
31681;BME280;18281;51.364;9.566;2024-02-26T00:12:33;98519.41;;;-1.86;100.00
31681;BME280;18281;51.364;9.566;2024-02-26T00:14:59;98511.03;;;-1.93;100.00
31681;BME280;18281;51.364;9.566;2024-02-26T00:17:24;98505.97;;;-1.96;100.00
31681;BME280;18281;51.364;9.566;2024-02-26T00:19:50;98504.63;;;-1.79;100.00
31681;BME280;18281;51.364;9.566;2024-02-26T00:22:15;98505.34;;;-1.74;100.00
31681;BME280;18281;51.364;9.566;2024-02-26T00:24:41;98501.84;;;-1.72;100.00
31681;BME280;18281;51.364;9.566;2024-02-26T00:27:06;98508.81;;;-1.47;100.00
31681;BME280;18281;51.364;9.566;2024-02-26T00:29:32;98498.16;;;-1.63;100.00
31681;BME280;18281;51.364;9.566;2024-02-26T00:31:57;98509.63;;;-1.75;100.00
31681;BME280;18281;51.364;9.566;2024-02-26T00:34:23;98506.91;;;-1.69;100.00
31681;BME280;18281;51.364;9.566;2024-02-26T00:36:49;98500.44;;;-1.54;100.00
31681;BME280;18281;51.364;9.566;2024-02-26T00:39:14;98496.28;;;-1.58;100.00
31681;BME280;18281;51.364;9.566;2024-02-26T00:41:40;98496.72;;;-1.43;100.00
31681;BME280;18281;51.364;9.566;2024-02-26T00:44:06;98497.25;;;-1.34;100.00
31681;BME280;18281;51.364;9.566;2024-02-26T00:46:31;98481.78;;;-1.60;100.00
31681;BME280;18281;51.364;9.566;2024-02-26T00:48:56;98492.03;;;-1.59;100.00
31681;BME280;18281;51.364;9.566;2024-02-26T00:51:22;98506.16;;;-1.44;100.00
31681;BME280;18281;51.364;9.566;2024-02-26T00:53:47;98505.59;;;-1.54;100.00
31681;BME280;18281;51.364;9.566;2024-02-26T00:56:12;98507.00;;;-1.43;100.00
31681;BME280;18281;51.364;9.566;2024-02-26T00:58:38;98505.31;;;-1.44;100.00
31681;BME280;18281;51.364;9.566;2024-02-26T01:01:04;98507.66;;;-1.65;100.00
31681;BME280;18281;51.364;9.566;2024-02-26T01:03:29;98504.75;;;-1.54;100.00
31681;BME280;18281;51.364;9.566;2024-02-26T01:05:55;98498.34;;;-1.41;100.00
31681;BME280;18281;51.364;9.566;2024-02-26T01:08:20;98488.78;;;-1.37;100.00
31681;BME280;18281;51.364;9.566;2024-02-26T01:10:45;98489.78;;;-1.41;100.00
31681;BME280;18281;51.364;9.566;2024-02-26T01:13:11;98485.66;;;-1.47;100.00
31681;BME280;18281;51.364;9.566;2024-02-26T01:15:36;98482.09;;;-1.43;100.00
31681;BME280;18281;51.364;9.566;2024-02-26T01:18:02;98476.50;;;-1.56;100.00
31681;BME280;18281;51.364;9.566;2024-02-26T01:20:27;98471.03;;;-1.47;100.00
31681;BME280;18281;51.364;9.566;2024-02-26T01:22:53;98468.69;;;-1.53;100.00
31681;BME280;18281;51.364;9.566;2024-02-26T01:25:18;98475.63;;;-1.56;100.00
31681;BME280;18281;51.364;9.566;2024-02-26T01:27:43;98472.91;;;-1.50;100.00
31681;BME280;18281;51.364;9.566;2024-02-26T01:30:09;98479.75;;;-1.51;100.00
31681;BME280;18281;51.364;9.566;2024-02-26T01:32:35;98483.09;;;-1.47;100.00
31681;BME280;18281;51.364;9.566;2024-02-26T01:35:01;98473.50;;;-1.42;100.00
31681;BME280;18281;51.364;9.566;2024-02-26T01:37:28;98468.91;;;-1.60;100.00
31681;BME280;18281;51.364;9.566;2024-02-26T01:39:55;98464.66;;;-1.61;100.00
31681;BME280;18281;51.364;9.566;2024-02-26T01:42:20;98471.91;;;-1.46;100.00
31681;BME280;18281;51.364;9.566;2024-02-26T01:44:46;98468.81;;;-1.57;100.00
31681;BME280;18281;51.364;9.566;2024-02-26T01:47:12;98466.53;;;-1.40;100.00
31681;BME280;18281;51.364;9.566;2024-02-26T01:49:39;98464.09;;;-1.43;100.00
31681;BME280;18281;51.364;9.566;2024-02-26T01:52:06;98472.66;;;-1.42;100.00
31681;BME280;18281;51.364;9.566;2024-02-26T01:54:33;98471.03;;;-1.45;100.00
31681;BME280;18281;51.364;9.566;2024-02-26T01:57:00;98477.81;;;-1.42;100.00
31681;BME280;18281;51.364;9.566;2024-02-26T01:59:26;98470.69;;;-1.34;100.00
31681;BME280;18281;51.364;9.566;2024-02-26T02:01:55;98472.66;;;-1.42;100.00
31681;BME280;18281;51.364;9.566;2024-02-26T02:04:23;98470.28;;;-1.49;100.00
31681;BME280;18281;51.364;9.566;2024-02-26T02:06:48;98475.38;;;-1.47;100.00
31681;BME280;18281;51.364;9.566;2024-02-26T02:09:13;98476.06;;;-1.42;100.00
31681;BME280;18281;51.364;9.566;2024-02-26T02:11:39;98479.25;;;-1.34;100.00
31681;BME280;18281;51.364;9.566;2024-02-26T02:14:05;98482.84;;;-1.39;100.00
31681;BME280;18281;51.364;9.566;2024-02-26T02:16:30;98483.19;;;-1.50;100.00
31681;BME280;18281;51.364;9.566;2024-02-26T02:18:56;98472.50;;;-1.38;100.00
31681;BME280;18281;51.364;9.566;2024-02-26T02:21:21;98475.03;;;-1.36;100.00
31681;BME280;18281;51.364;9.566;2024-02-26T02:23:47;98470.03;;;-1.41;100.00
31681;BME280;18281;51.364;9.566;2024-02-26T02:26:14;98474.16;;;-1.35;100.00
31681;BME280;18281;51.364;9.566;2024-02-26T02:28:40;98475.84;;;-1.34;100.00
31681;BME280;18281;51.364;9.566;2024-02-26T02:31:06;98480.22;;;-1.38;100.00
31681;BME280;18281;51.364;9.566;2024-02-26T02:33:32;98483.63;;;-1.36;100.00
31681;BME280;18281;51.364;9.566;2024-02-26T02:35:58;98476.66;;;-1.34;100.00
31681;BME280;18281;51.364;9.566;2024-02-26T02:38:24;98478.63;;;-1.42;100.00
31681;BME280;18281;51.364;9.566;2024-02-26T02:40:54;98474.91;;;-1.32;100.00
31681;BME280;18281;51.364;9.566;2024-02-26T02:43:19;98477.88;;;-1.45;100.00
31681;BME280;18281;51.364;9.566;2024-02-26T02:45:44;98481.97;;;-1.38;100.00
31681;BME280;18281;51.364;9.566;2024-02-26T02:48:13;98477.59;;;-1.36;100.00
31681;BME280;18281;51.364;9.566;2024-02-26T02:50:39;98466.31;;;-1.32;100.00
31681;BME280;18281;51.364;9.566;2024-02-26T02:53:04;98472.16;;;-1.27;100.00
31681;BME280;18281;51.364;9.566;2024-02-26T02:55:30;98475.16;;;-1.12;100.00
31681;BME280;18281;51.364;9.566;2024-02-26T02:57:55;98477.97;;;-1.20;100.00
31681;BME280;18281;51.364;9.566;2024-02-26T03:00:20;98475.34;;;-1.19;100.00
31681;BME280;18281;51.364;9.566;2024-02-26T03:02:48;98473.16;;;-1.31;100.00
31681;BME280;18281;51.364;9.566;2024-02-26T03:05:14;98470.97;;;-1.43;100.00
31681;BME280;18281;51.364;9.566;2024-02-26T03:07:39;98474.09;;;-1.34;100.00
31681;BME280;18281;51.364;9.566;2024-02-26T03:10:05;98470.56;;;-1.31;100.00
31681;BME280;18281;51.364;9.566;2024-02-26T03:12:30;98472.16;;;-1.27;100.00
31681;BME280;18281;51.364;9.566;2024-02-26T03:14:56;98479.75;;;-1.22;100.00
31681;BME280;18281;51.364;9.566;2024-02-26T03:17:22;98475.72;;;-1.31;100.00
31681;BME280;18281;51.364;9.566;2024-02-26T03:19:49;98475.34;;;-1.19;100.00
31681;BME280;18281;51.364;9.566;2024-02-26T03:22:18;98472.75;;;-1.19;100.00
31681;BME280;18281;51.364;9.566;2024-02-26T03:24:44;98470.41;;;-1.25;100.00
31681;BME280;18281;51.364;9.566;2024-02-26T03:27:09;98472.75;;;-1.19;100.00
31681;BME280;18281;51.364;9.566;2024-02-26T03:29:36;98469.28;;;-1.18;100.00
31681;BME280;18281;51.364;9.566;2024-02-26T03:32:02;98464.94;;;-1.16;100.00
31681;BME280;18281;51.364;9.566;2024-02-26T03:34:28;98466.91;;;-1.24;100.00
31681;BME280;18281;51.364;9.566;2024-02-26T03:36:53;98464.94;;;-1.16;100.00
31681;BME280;18281;51.364;9.566;2024-02-26T03:39:19;98462.75;;;-1.01;100.00
31681;BME280;18281;51.364;9.566;2024-02-26T03:41:44;98447.25;;;-1.00;100.00
31681;BME280;18281;51.364;9.566;2024-02-26T03:44:09;98452.31;;;-0.97;100.00
31681;BME280;18281;51.364;9.566;2024-02-26T03:46:35;98454.56;;;-0.87;100.00
31681;BME280;18281;51.364;9.566;2024-02-26T03:49:00;98447.75;;;-0.88;100.00
31681;BME280;18281;51.364;9.566;2024-02-26T03:51:25;98457.22;;;-0.89;100.00
31681;BME280;18281;51.364;9.566;2024-02-26T03:53:51;98444.91;;;-0.81;100.00
31681;BME280;18281;51.364;9.566;2024-02-26T03:56:17;98447.75;;;-0.88;100.00
31681;BME280;18281;51.364;9.566;2024-02-26T03:58:42;98445.22;;;-0.90;100.00
31681;BME280;18281;51.364;9.566;2024-02-26T04:01:08;98444.78;;;-0.77;100.00
31681;BME280;18281;51.364;9.566;2024-02-26T04:03:34;98440.91;;;-0.89;100.00
31681;BME280;18281;51.364;9.566;2024-02-26T04:06:00;98441.22;;;-0.73;100.00
31681;BME280;18281;51.364;9.566;2024-02-26T04:08:25;98445.22;;;-0.65;100.00
31681;BME280;18281;51.364;9.566;2024-02-26T04:10:50;98443.47;;;-0.64;100.00
31681;BME280;18281;51.364;9.566;2024-02-26T04:13:17;98433.28;;;-0.67;100.00
31681;BME280;18281;51.364;9.566;2024-02-26T04:15:42;98433.47;;;-0.73;100.00
31681;BME280;18281;51.364;9.566;2024-02-26T04:18:08;98434.94;;;-0.66;100.00
31681;BME280;18281;51.364;9.566;2024-02-26T04:20:33;98432.38;;;-0.66;100.00
31681;BME280;18281;51.364;9.566;2024-02-26T04:22:58;98429.66;;;-0.61;100.00
31681;BME280;18281;51.364;9.566;2024-02-26T04:25:24;98428.44;;;-0.76;100.00
31681;BME280;18281;51.364;9.566;2024-02-26T04:27:49;98428.13;;;-0.67;100.00
31681;BME280;18281;51.364;9.566;2024-02-26T04:30:15;98425.50;;;-0.66;100.00
31681;BME280;18281;51.364;9.566;2024-02-26T04:32:40;98442.34;;;-0.57;100.00
31681;BME280;18281;51.364;9.566;2024-02-26T04:35:06;98441.31;;;-0.51;100.00
31681;BME280;18281;51.364;9.566;2024-02-26T04:37:31;98433.84;;;-0.59;100.00
31681;BME280;18281;51.364;9.566;2024-02-26T04:40:00;98430.16;;;-0.77;100.00
31681;BME280;18281;51.364;9.566;2024-02-26T04:42:27;98428.81;;;-0.62;100.00
31681;BME280;18281;51.364;9.566;2024-02-26T04:44:52;98426.25;;;-0.64;100.00
31681;BME280;18281;51.364;9.566;2024-02-26T04:47:19;98427.84;;;-0.59;100.00
31681;BME280;18281;51.364;9.566;2024-02-26T04:49:44;98437.88;;;-0.52;100.00
31681;BME280;18281;51.364;9.566;2024-02-26T04:52:11;98450.56;;;-0.45;100.00
31681;BME280;18281;51.364;9.566;2024-02-26T04:54:36;98456.66;;;-0.48;100.00
31681;BME280;18281;51.364;9.566;2024-02-26T04:57:02;98460.75;;;-0.42;100.00
31681;BME280;18281;51.364;9.566;2024-02-26T04:59:27;98473.53;;;-0.39;100.00
31681;BME280;18281;51.364;9.566;2024-02-26T05:01:52;98476.75;;;-0.33;100.00
31681;BME280;18281;51.364;9.566;2024-02-26T05:04:18;98492.13;;;-0.30;100.00
31681;BME280;18281;51.364;9.566;2024-02-26T05:06:43;98486.03;;;-0.27;100.00
31681;BME280;18281;51.364;9.566;2024-02-26T05:09:09;98479.63;;;-0.40;100.00
31681;BME280;18281;51.364;9.566;2024-02-26T05:11:34;98478.66;;;-0.38;100.00
31681;BME280;18281;51.364;9.566;2024-02-26T05:14:00;98483.50;;;-0.28;100.00
31681;BME280;18281;51.364;9.566;2024-02-26T05:16:26;98494.44;;;-0.22;100.00
31681;BME280;18281;51.364;9.566;2024-02-26T05:18:52;98490.63;;;-0.35;100.00
31681;BME280;18281;51.364;9.566;2024-02-26T05:21:18;98483.06;;;-0.41;100.00
31681;BME280;18281;51.364;9.566;2024-02-26T05:23:43;98486.41;;;-0.38;100.00
31681;BME280;18281;51.364;9.566;2024-02-26T05:26:09;98500.47;;;-0.23;100.00
31681;BME280;18281;51.364;9.566;2024-02-26T05:28:34;98488.41;;;-0.22;100.00
31681;BME280;18281;51.364;9.566;2024-02-26T05:31:01;98489.94;;;-0.17;100.00
31681;BME280;18281;51.364;9.566;2024-02-26T05:33:28;98503.69;;;-0.16;100.00
31681;BME280;18281;51.364;9.566;2024-02-26T05:35:53;98490.38;;;-0.29;100.00
31681;BME280;18281;51.364;9.566;2024-02-26T05:38:19;98488.41;;;-0.22;100.00
31681;BME280;18281;51.364;9.566;2024-02-26T05:40:44;98489.94;;;-0.17;100.00
31681;BME280;18281;51.364;9.566;2024-02-26T05:43:11;98484.88;;;-0.20;100.00
31681;BME280;18281;51.364;9.566;2024-02-26T05:45:36;98484.84;;;-0.18;100.00
31681;BME280;18281;51.364;9.566;2024-02-26T05:48:02;98490.72;;;-0.15;100.00
31681;BME280;18281;51.364;9.566;2024-02-26T05:50:28;98489.38;;;-0.25;100.00
31681;BME280;18281;51.364;9.566;2024-02-26T05:52:53;98489.03;;;-0.16;100.00
31681;BME280;18281;51.364;9.566;2024-02-26T05:55:19;98492.41;;;-0.14;100.00
31681;BME280;18281;51.364;9.566;2024-02-26T05:57:44;98477.03;;;-0.17;100.00
31681;BME280;18281;51.364;9.566;2024-02-26T06:00:10;98484.00;;;-0.19;100.00
31681;BME280;18281;51.364;9.566;2024-02-26T06:02:35;98474.06;;;-0.30;100.00
31681;BME280;18281;51.364;9.566;2024-02-26T06:05:01;98474.91;;;-0.29;100.00
31681;BME280;18281;51.364;9.566;2024-02-26T06:07:29;98476.22;;;-0.42;100.00
31681;BME280;18281;51.364;9.566;2024-02-26T06:09:55;98484.19;;;-0.49;100.00
31681;BME280;18281;51.364;9.566;2024-02-26T06:12:20;98486.88;;;-0.52;100.00
31681;BME280;18281;51.364;9.566;2024-02-26T06:14:45;98494.97;;;-0.37;100.00
31681;BME280;18281;51.364;9.566;2024-02-26T06:17:11;98494.97;;;-0.37;100.00
31681;BME280;18281;51.364;9.566;2024-02-26T06:19:36;98499.75;;;-0.26;100.00
31681;BME280;18281;51.364;9.566;2024-02-26T06:22:04;98504.22;;;-0.32;100.00
31681;BME280;18281;51.364;9.566;2024-02-26T06:24:29;98504.34;;;-0.35;100.00
31681;BME280;18281;51.364;9.566;2024-02-26T06:26:55;98515.47;;;-0.34;100.00
31681;BME280;18281;51.364;9.566;2024-02-26T06:29:20;98525.72;;;-0.31;100.00
31681;BME280;18281;51.364;9.566;2024-02-26T06:31:45;98523.69;;;-0.23;100.00
31681;BME280;18281;51.364;9.566;2024-02-26T06:34:12;98536.22;;;-0.12;100.00
31681;BME280;18281;51.364;9.566;2024-02-26T06:36:38;98542.75;;;-0.03;100.00
31681;BME280;18281;51.364;9.566;2024-02-26T06:39:03;98552.88;;;0.03;100.00
31681;BME280;18281;51.364;9.566;2024-02-26T06:41:30;98548.41;;;0.08;100.00
31681;BME280;18281;51.364;9.566;2024-02-26T06:43:56;98553.63;;;0.07;100.00
31681;BME280;18281;51.364;9.566;2024-02-26T06:46:22;98551.94;;;0.06;100.00
31681;BME280;18281;51.364;9.566;2024-02-26T06:48:48;98563.88;;;0.08;100.00
31681;BME280;18281;51.364;9.566;2024-02-26T06:51:14;98561.19;;;0.11;100.00
31681;BME280;18281;51.364;9.566;2024-02-26T06:53:43;98563.75;;;0.11;100.00
31681;BME280;18281;51.364;9.566;2024-02-26T06:56:08;98567.22;;;0.10;100.00
31681;BME280;18281;51.364;9.566;2024-02-26T06:58:33;98566.53;;;0.07;100.00
31681;BME280;18281;51.364;9.566;2024-02-26T07:00:59;98583.56;;;0.11;100.00
31681;BME280;18281;51.364;9.566;2024-02-26T07:03:27;98580.13;;;0.10;100.00
31681;BME280;18281;51.364;9.566;2024-02-26T07:05:52;98577.94;;;-0.01;100.00
31681;BME280;18281;51.364;9.566;2024-02-26T07:08:18;98572.69;;;0.26;100.00
31681;BME280;18281;51.364;9.566;2024-02-26T07:10:43;98571.91;;;2.00;100.00
31681;BME280;18281;51.364;9.566;2024-02-26T07:13:09;98573.06;;;2.51;100.00
31681;BME280;18281;51.364;9.566;2024-02-26T07:15:34;98561.34;;;2.04;100.00
31681;BME280;18281;51.364;9.566;2024-02-26T07:18:00;98571.59;;;1.66;100.00
31681;BME280;18281;51.364;9.566;2024-02-26T07:20:29;98573.47;;;1.42;100.00
31681;BME280;18281;51.364;9.566;2024-02-26T07:22:55;98568.66;;;1.33;100.00
31681;BME280;18281;51.364;9.566;2024-02-26T07:25:20;98569.94;;;1.23;100.00
31681;BME280;18281;51.364;9.566;2024-02-26T07:27:46;98575.38;;;1.16;100.00
31681;BME280;18281;51.364;9.566;2024-02-26T07:30:11;98574.69;;;1.11;100.00
31681;BME280;18281;51.364;9.566;2024-02-26T07:32:37;98573.31;;;1.02;100.00
31681;BME280;18281;51.364;9.566;2024-02-26T07:35:03;98575.38;;;0.93;100.00
31681;BME280;18281;51.364;9.566;2024-02-26T07:37:28;98572.59;;;0.97;100.00
31681;BME280;18281;51.364;9.566;2024-02-26T07:39:54;98569.31;;;0.94;100.00
31681;BME280;18281;51.364;9.566;2024-02-26T07:42:19;98567.66;;;0.69;100.00
31681;BME280;18281;51.364;9.566;2024-02-26T07:44:45;98568.94;;;0.59;100.00
31681;BME280;18281;51.364;9.566;2024-02-26T07:47:10;98559.50;;;0.58;100.00
31681;BME280;18281;51.364;9.566;2024-02-26T07:49:35;98579.31;;;0.57;100.00
31681;BME280;18281;51.364;9.566;2024-02-26T07:52:01;98574.19;;;0.56;100.00
31681;BME280;18281;51.364;9.566;2024-02-26T07:54:26;98580.09;;;0.59;100.00
31681;BME280;18281;51.364;9.566;2024-02-26T07:56:52;98585.25;;;0.59;100.00
31681;BME280;18281;51.364;9.566;2024-02-26T07:59:17;98592.00;;;0.63;100.00
31681;BME280;18281;51.364;9.566;2024-02-26T08:01:43;98605.72;;;0.65;100.00
31681;BME280;18281;51.364;9.566;2024-02-26T08:04:08;98600.63;;;0.62;100.00
31681;BME280;18281;51.364;9.566;2024-02-26T08:06:34;98606.53;;;0.66;100.00
31681;BME280;18281;51.364;9.566;2024-02-26T08:08:59;98613.06;;;0.76;100.00
31681;BME280;18281;51.364;9.566;2024-02-26T08:11:24;98613.16;;;0.73;100.00
31681;BME280;18281;51.364;9.566;2024-02-26T08:13:50;98622.31;;;0.82;100.00
31681;BME280;18281;51.364;9.566;2024-02-26T08:16:15;98614.50;;;0.83;100.00
31681;BME280;18281;51.364;9.566;2024-02-26T08:18:40;98611.69;;;0.90;100.00
31681;BME280;18281;51.364;9.566;2024-02-26T08:21:06;98608.59;;;1.26;100.00
31681;BME280;18281;51.364;9.566;2024-02-26T08:23:31;98604.63;;;1.60;100.00
31681;BME280;18281;51.364;9.566;2024-02-26T08:25:57;98606.84;;;1.69;100.00
31681;BME280;18281;51.364;9.566;2024-02-26T08:28:22;98606.16;;;1.86;100.00
31681;BME280;18281;51.364;9.566;2024-02-26T08:30:48;98602.34;;;2.34;100.00
31681;BME280;18281;51.364;9.566;2024-02-26T08:33:13;98600.91;;;3.22;100.00
31681;BME280;18281;51.364;9.566;2024-02-26T08:35:39;98599.06;;;3.61;100.00
31681;BME280;18281;51.364;9.566;2024-02-26T08:38:04;98594.53;;;4.00;100.00
31681;BME280;18281;51.364;9.566;2024-02-26T08:40:30;98585.09;;;4.15;100.00
31681;BME280;18281;51.364;9.566;2024-02-26T08:42:55;98596.31;;;4.33;100.00
31681;BME280;18281;51.364;9.566;2024-02-26T08:45:21;98593.28;;;4.25;100.00
31681;BME280;18281;51.364;9.566;2024-02-26T08:47:46;98585.09;;;4.15;100.00
31681;BME280;18281;51.364;9.566;2024-02-26T08:50:12;98591.72;;;4.04;100.00
31681;BME280;18281;51.364;9.566;2024-02-26T08:52:38;98593.53;;;4.02;100.00
31681;BME280;18281;51.364;9.566;2024-02-26T08:55:04;98590.59;;;3.93;100.00
31681;BME280;18281;51.364;9.566;2024-02-26T08:57:31;98597.53;;;3.92;100.00
31681;BME280;18281;51.364;9.566;2024-02-26T08:59:58;98593.78;;;3.98;100.00
31681;BME280;18281;51.364;9.566;2024-02-26T09:02:23;98593.88;;;3.96;100.00
31681;BME280;18281;51.364;9.566;2024-02-26T09:04:48;98601.13;;;3.89;100.00
31681;BME280;18281;51.364;9.566;2024-02-26T09:07:16;98603.72;;;3.89;100.00
31681;BME280;18281;51.364;9.566;2024-02-26T09:09:41;98600.97;;;3.93;100.00
31681;BME280;18281;51.364;9.566;2024-02-26T09:12:07;98608.28;;;4.02;100.00
31681;BME280;18281;51.364;9.566;2024-02-26T09:14:32;98609.91;;;4.04;100.00
31681;BME280;18281;51.364;9.566;2024-02-26T09:16:57;98611.34;;;3.93;100.00
31681;BME280;18281;51.364;9.566;2024-02-26T09:19:24;98606.31;;;4.07;100.00
31681;BME280;18281;51.364;9.566;2024-02-26T09:21:51;98600.91;;;3.77;100.00
31681;BME280;18281;51.364;9.566;2024-02-26T09:24:16;98608.22;;;4.03;100.00
31681;BME280;18281;51.364;9.566;2024-02-26T09:26:41;98608.56;;;4.13;100.00
31681;BME280;18281;51.364;9.566;2024-02-26T09:29:06;98606.00;;;4.63;100.00
31681;BME280;18281;51.364;9.566;2024-02-26T09:31:33;98611.53;;;4.88;100.00
31681;BME280;18281;51.364;9.566;2024-02-26T09:33:59;98607.00;;;5.08;100.00
31681;BME280;18281;51.364;9.566;2024-02-26T09:36:24;98605.41;;;5.37;100.00
31681;BME280;18281;51.364;9.566;2024-02-26T09:38:50;98602.28;;;5.31;100.00
31681;BME280;18281;51.364;9.566;2024-02-26T09:41:15;98605.00;;;5.13;100.00
31681;BME280;18281;51.364;9.566;2024-02-26T09:43:44;98610.63;;;5.21;100.00
31681;BME280;18281;51.364;9.566;2024-02-26T09:46:11;98618.75;;;5.15;100.00
31681;BME280;18281;51.364;9.566;2024-02-26T09:48:37;98621.94;;;5.04;100.00
31681;BME280;18281;51.364;9.566;2024-02-26T09:51:03;98624.03;;;5.14;100.00
31681;BME280;18281;51.364;9.566;2024-02-26T09:53:30;98621.19;;;5.18;100.00
31681;BME280;18281;51.364;9.566;2024-02-26T09:55:58;98622.44;;;5.11;100.00
31681;BME280;18281;51.364;9.566;2024-02-26T09:58:25;98624.53;;;5.20;100.00
31681;BME280;18281;51.364;9.566;2024-02-26T10:00:56;98612.31;;;5.06;100.00
31681;BME280;18281;51.364;9.566;2024-02-26T10:03:25;98618.19;;;5.26;100.00
31681;BME280;18281;51.364;9.566;2024-02-26T10:05:53;98616.75;;;5.36;100.00
31681;BME280;18281;51.364;9.566;2024-02-26T10:08:20;98613.41;;;5.65;100.00
31681;BME280;18281;51.364;9.566;2024-02-26T10:10:47;98617.84;;;5.79;100.00
31681;BME280;18281;51.364;9.566;2024-02-26T10:13:13;98609.13;;;6.09;100.00
31681;BME280;18281;51.364;9.566;2024-02-26T10:15:38;98615.75;;;6.14;100.00
31681;BME280;18281;51.364;9.566;2024-02-26T10:18:05;98612.97;;;6.17;100.00
31681;BME280;18281;51.364;9.566;2024-02-26T10:20:30;98612.34;;;5.69;98.90
31681;BME280;18281;51.364;9.566;2024-02-26T10:22:57;98619.31;;;5.83;100.00
31681;BME280;18281;51.364;9.566;2024-02-26T10:25:22;98617.84;;;5.79;99.85
31681;BME280;18281;51.364;9.566;2024-02-26T10:27:48;98628.28;;;5.63;100.00
31681;BME280;18281;51.364;9.566;2024-02-26T10:30:21;98632.97;;;5.72;100.00
31681;BME280;18281;51.364;9.566;2024-02-26T10:32:47;98637.72;;;5.49;100.00
31681;BME280;18281;51.364;9.566;2024-02-26T10:35:14;98639.13;;;5.55;100.00
31681;BME280;18281;51.364;9.566;2024-02-26T10:37:41;98647.53;;;5.60;99.06
31681;BME280;18281;51.364;9.566;2024-02-26T10:40:10;98644.94;;;5.60;99.78
31681;BME280;18281;51.364;9.566;2024-02-26T10:42:35;98651.13;;;5.57;99.60
31681;BME280;18281;51.364;9.566;2024-02-26T10:45:00;98651.72;;;5.63;100.00
31681;BME280;18281;51.364;9.566;2024-02-26T10:47:28;98652.63;;;5.62;100.00
31681;BME280;18281;51.364;9.566;2024-02-26T10:49:54;98663.06;;;5.62;100.00
31681;BME280;18281;51.364;9.566;2024-02-26T10:52:20;98653.66;;;5.59;99.89
31681;BME280;18281;51.364;9.566;2024-02-26T10:54:47;98663.41;;;5.55;99.52
31681;BME280;18281;51.364;9.566;2024-02-26T10:57:15;98662.72;;;5.68;100.00
31681;BME280;18281;51.364;9.566;2024-02-26T10:59:42;98676.50;;;5.54;99.63
31681;BME280;18281;51.364;9.566;2024-02-26T11:02:10;98668.25;;;5.62;99.97
31681;BME280;18281;51.364;9.566;2024-02-26T11:04:35;98679.16;;;5.68;100.00
31681;BME280;18281;51.364;9.566;2024-02-26T11:07:02;98677.34;;;5.70;100.00
31681;BME280;18281;51.364;9.566;2024-02-26T11:09:30;98683.16;;;5.60;99.73
31681;BME280;18281;51.364;9.566;2024-02-26T11:11:57;98683.38;;;5.71;99.57
31681;BME280;18281;51.364;9.566;2024-02-26T11:14:24;98681.88;;;5.67;99.02
31681;BME280;18281;51.364;9.566;2024-02-26T11:16:51;98685.38;;;5.66;100.00
31681;BME280;18281;51.364;9.566;2024-02-26T11:19:17;98688.75;;;5.68;100.00
31681;BME280;18281;51.364;9.566;2024-02-26T11:21:43;98688.31;;;5.76;100.00
31681;BME280;18281;51.364;9.566;2024-02-26T11:24:12;98690.00;;;5.61;98.97
31681;BME280;18281;51.364;9.566;2024-02-26T11:26:42;98689.59;;;5.68;100.00
31681;BME280;18281;51.364;9.566;2024-02-26T11:29:11;98692.69;;;5.75;100.00
31681;BME280;18281;51.364;9.566;2024-02-26T11:31:39;98687.09;;;5.35;97.57
31681;BME280;18281;51.364;9.566;2024-02-26T11:34:07;98684.00;;;5.44;97.67
31681;BME280;18281;51.364;9.566;2024-02-26T11:36:34;98678.00;;;5.58;96.76
31681;BME280;18281;51.364;9.566;2024-02-26T11:38:59;98681.53;;;5.73;97.77
31681;BME280;18281;51.364;9.566;2024-02-26T11:41:25;98689.25;;;5.75;98.45
31681;BME280;18281;51.364;9.566;2024-02-26T11:44:00;98686.16;;;5.68;98.74
31681;BME280;18281;51.364;9.566;2024-02-26T11:46:27;98684.97;;;5.73;99.38
31681;BME280;18281;51.364;9.566;2024-02-26T11:48:58;98677.47;;;5.67;98.48
31681;BME280;18281;51.364;9.566;2024-02-26T11:51:32;98670.31;;;5.87;100.00
31681;BME280;18281;51.364;9.566;2024-02-26T11:53:57;98675.22;;;5.77;98.33
31681;BME280;18281;51.364;9.566;2024-02-26T11:56:24;98679.91;;;5.86;99.85
31681;BME280;18281;51.364;9.566;2024-02-26T11:59:08;98672.38;;;5.66;98.20
31681;BME280;18281;51.364;9.566;2024-02-26T12:01:47;98675.97;;;5.63;98.63
31681;BME280;18281;51.364;9.566;2024-02-26T12:04:24;98683.16;;;5.44;98.55
31681;BME280;18281;51.364;9.566;2024-02-26T12:07:01;98681.97;;;5.49;96.91
31681;BME280;18281;51.364;9.566;2024-02-26T12:09:40;98690.59;;;5.34;98.35
31681;BME280;18281;51.364;9.566;2024-02-26T12:12:18;98684.97;;;5.26;97.94
31681;BME280;18281;51.364;9.566;2024-02-26T12:14:55;98695.06;;;5.32;98.14
31681;BME280;18281;51.364;9.566;2024-02-26T12:17:22;98694.72;;;5.38;98.81
31681;BME280;18281;51.364;9.566;2024-02-26T12:19:48;98697.97;;;5.26;98.21
31681;BME280;18281;51.364;9.566;2024-02-26T12:22:14;98697.34;;;5.38;97.81
31681;BME280;18281;51.364;9.566;2024-02-26T12:24:41;98693.78;;;5.23;97.19
31681;BME280;18281;51.364;9.566;2024-02-26T12:27:06;98705.59;;;5.29;98.60
31681;BME280;18281;51.364;9.566;2024-02-26T12:29:31;98712.34;;;5.33;98.02
31681;BME280;18281;51.364;9.566;2024-02-26T12:31:57;98720.66;;;5.23;98.41
31681;BME280;18281;51.364;9.566;2024-02-26T12:34:22;98721.75;;;5.19;98.36
31681;BME280;18281;51.364;9.566;2024-02-26T12:36:48;98713.25;;;5.16;99.23
31681;BME280;18281;51.364;9.566;2024-02-26T12:39:14;98716.69;;;5.16;99.16
31681;BME280;18281;51.364;9.566;2024-02-26T12:41:39;98710.97;;;5.10;99.44
31681;BME280;18281;51.364;9.566;2024-02-26T12:44:05;98714.19;;;5.15;97.70
31681;BME280;18281;51.364;9.566;2024-02-26T12:46:32;98711.25;;;5.21;99.07
31681;BME280;18281;51.364;9.566;2024-02-26T12:48:58;98705.88;;;5.08;98.66